createdAt,value
2022-10-02T00:00:02.587Z,99.90
2022-10-02T00:02:37.010Z,99.90
2022-10-02T00:05:08.495Z,99.90
2022-10-02T00:07:43.517Z,99.90
2022-10-02T00:10:17.098Z,99.90
2022-10-02T00:12:46.935Z,99.90
2022-10-02T00:15:19.128Z,99.90
2022-10-02T00:17:52.652Z,99.90
2022-10-02T00:20:29.056Z,99.90
2022-10-02T00:23:03.089Z,99.90
2022-10-02T00:25:36.558Z,99.90
2022-10-02T00:28:18.812Z,99.90
2022-10-02T00:31:08.434Z,99.90
2022-10-02T00:33:49.500Z,99.90
2022-10-02T00:36:30.576Z,99.90
2022-10-02T00:39:07.611Z,99.90
2022-10-02T00:42:10.044Z,99.90
2022-10-02T00:44:52.023Z,99.90
2022-10-02T00:47:31.509Z,99.90
2022-10-02T00:50:15.777Z,99.90
2022-10-02T00:52:57.151Z,99.90
2022-10-02T00:56:08.670Z,99.90
2022-10-02T00:58:56.670Z,99.90
2022-10-02T01:01:30.383Z,99.90
2022-10-02T01:04:01.985Z,99.90
2022-10-02T01:06:30.373Z,99.90
2022-10-02T01:08:58.936Z,99.90
2022-10-02T01:11:30.724Z,99.90
2022-10-02T01:13:59.133Z,99.90
2022-10-02T01:16:27.315Z,99.90
2022-10-02T01:18:55.310Z,99.90
2022-10-02T01:21:29.628Z,99.90
2022-10-02T01:24:02.906Z,99.90
2022-10-02T01:26:33.108Z,99.90
2022-10-02T01:29:01.468Z,99.90
2022-10-02T01:31:29.568Z,99.90
2022-10-02T01:33:57.851Z,99.90
2022-10-02T01:36:26.701Z,99.90
2022-10-02T01:38:55.642Z,99.90
2022-10-02T01:41:23.881Z,99.90
2022-10-02T01:43:56.777Z,99.90
2022-10-02T01:46:35.362Z,99.90
2022-10-02T01:49:32.561Z,99.90
2022-10-02T01:52:21.268Z,99.90
2022-10-02T01:55:04.261Z,99.90
2022-10-02T01:57:46.750Z,99.90
2022-10-02T02:00:19.830Z,99.90
2022-10-02T02:02:57.457Z,99.90
2022-10-02T02:05:33.954Z,99.90
2022-10-02T02:08:10.025Z,99.90
2022-10-02T02:10:48.313Z,99.90
2022-10-02T02:13:22.497Z,99.90
2022-10-02T02:15:58.091Z,99.90
2022-10-02T02:18:32.902Z,99.90
2022-10-02T02:21:05.010Z,99.90
2022-10-02T02:23:38.011Z,99.90
2022-10-02T02:26:09.488Z,99.90
2022-10-02T02:28:39.044Z,99.90
2022-10-02T02:31:10.997Z,99.90
2022-10-02T02:33:44.925Z,99.90
2022-10-02T02:36:17.138Z,99.90
2022-10-02T02:38:49.187Z,99.90
2022-10-02T02:41:21.595Z,99.90
2022-10-02T02:43:55.449Z,99.90
2022-10-02T02:46:31.676Z,99.90
2022-10-02T02:49:04.136Z,99.90
2022-10-02T02:51:37.498Z,99.90
2022-10-02T02:54:09.360Z,99.90
2022-10-02T02:56:38.423Z,99.90
2022-10-02T02:59:09.825Z,99.90
2022-10-02T03:01:42.933Z,99.90
2022-10-02T03:04:13.694Z,99.90
2022-10-02T03:06:44.230Z,99.90
2022-10-02T03:09:14.945Z,99.90
2022-10-02T03:11:53.634Z,99.90
2022-10-02T03:14:46.470Z,99.90
2022-10-02T03:17:29.227Z,99.90
2022-10-02T03:20:04.556Z,99.90
2022-10-02T03:22:43.499Z,99.90
2022-10-02T03:25:15.053Z,99.90
2022-10-02T03:27:47.610Z,99.90
2022-10-02T03:30:20.689Z,99.90
2022-10-02T03:32:53.637Z,99.90
2022-10-02T03:35:23.185Z,99.90
2022-10-02T03:37:54.164Z,99.90
2022-10-02T03:40:24.200Z,99.90
2022-10-02T03:42:53.125Z,99.90
2022-10-02T03:45:46.098Z,99.90
2022-10-02T03:48:10.696Z,99.90
2022-10-02T03:50:38.651Z,99.90
2022-10-02T03:53:15.282Z,99.90
2022-10-02T03:55:47.529Z,99.90
2022-10-02T03:58:18.716Z,99.90
2022-10-02T04:00:53.484Z,99.90
2022-10-02T04:03:27.558Z,99.90
2022-10-02T04:06:01.158Z,99.90
2022-10-02T04:08:32.998Z,99.90
2022-10-02T04:11:07.961Z,99.90
2022-10-02T04:13:40.003Z,99.90
2022-10-02T04:16:14.354Z,99.90
2022-10-02T04:18:53.744Z,99.90
2022-10-02T04:21:34.999Z,99.90
2022-10-02T04:24:11.905Z,99.90
2022-10-02T04:26:45.166Z,99.90
2022-10-02T04:29:20.086Z,99.90
2022-10-02T04:31:53.256Z,99.90
2022-10-02T04:34:23.832Z,99.90
2022-10-02T04:37:11.748Z,99.90
2022-10-02T04:39:54.525Z,99.90
2022-10-02T04:42:38.297Z,99.90
2022-10-02T04:45:26.599Z,99.90
2022-10-02T04:48:36.274Z,99.90
2022-10-02T04:51:17.065Z,99.90
2022-10-02T04:53:56.543Z,99.90
2022-10-02T04:56:50.319Z,99.90
2022-10-02T04:59:29.516Z,99.90
2022-10-02T05:02:19.596Z,99.90
2022-10-02T05:05:05.889Z,99.90
2022-10-02T05:07:57.072Z,99.90
2022-10-02T05:10:52.090Z,99.90
2022-10-02T05:13:37.600Z,99.90
2022-10-02T05:16:29.521Z,99.90
2022-10-02T05:19:20.438Z,99.90
2022-10-02T05:22:29.172Z,99.90
2022-10-02T05:25:10.413Z,99.90
2022-10-02T05:28:03.297Z,99.90
2022-10-02T05:30:39.572Z,99.90
2022-10-02T05:33:22.907Z,99.90
2022-10-02T05:36:06.859Z,99.90
2022-10-02T05:39:11.264Z,99.90
2022-10-02T05:41:59.598Z,99.90
2022-10-02T05:44:35.866Z,99.90
2022-10-02T05:47:12.811Z,99.90
2022-10-02T05:49:44.842Z,99.90
2022-10-02T05:52:17.610Z,99.90
2022-10-02T05:54:52.505Z,99.90
2022-10-02T05:57:27.394Z,99.90
2022-10-02T06:00:05.948Z,99.90
2022-10-02T06:02:43.229Z,99.90
2022-10-02T06:05:17.271Z,99.90
2022-10-02T06:07:48.787Z,99.90
2022-10-02T06:10:19.723Z,99.90
2022-10-02T06:12:54.945Z,99.90
2022-10-02T06:15:29.670Z,99.90
2022-10-02T06:18:01.294Z,99.90
2022-10-02T06:20:34.293Z,99.90
2022-10-02T06:23:08.742Z,99.90
2022-10-02T06:25:40.953Z,99.90
2022-10-02T06:28:16.809Z,99.90
2022-10-02T06:30:50.762Z,99.90
2022-10-02T06:33:23.805Z,99.90
2022-10-02T06:36:18.088Z,99.90
2022-10-02T06:39:11.967Z,99.90
2022-10-02T06:41:49.533Z,99.90
2022-10-02T06:44:24.468Z,99.90
2022-10-02T06:47:06.175Z,99.90
2022-10-02T06:49:47.334Z,99.90
2022-10-02T06:52:26.474Z,99.90
2022-10-02T06:55:18.793Z,99.90
2022-10-02T06:58:01.294Z,99.90
2022-10-02T07:00:34.880Z,99.90
2022-10-02T07:03:27.378Z,99.90
2022-10-02T07:06:15.656Z,99.90
2022-10-02T07:09:09.687Z,99.90
2022-10-02T07:11:48.419Z,99.90
2022-10-02T07:14:31.415Z,99.90
2022-10-02T07:17:22.040Z,99.90
2022-10-02T07:20:10.326Z,99.90
2022-10-02T07:22:51.641Z,99.90
2022-10-02T07:25:59.204Z,99.90
2022-10-02T07:28:36.753Z,99.90
2022-10-02T07:31:11.452Z,99.90
2022-10-02T07:33:54.110Z,99.90
2022-10-02T07:36:35.423Z,99.90
2022-10-02T07:39:16.093Z,99.90
2022-10-02T07:42:05.991Z,99.90
2022-10-02T07:44:51.157Z,99.90
2022-10-02T07:47:38.779Z,99.90
2022-10-02T07:50:13.892Z,99.90
2022-10-02T07:52:47.981Z,99.90
2022-10-02T07:55:19.106Z,99.90
2022-10-02T07:57:57.367Z,99.90
2022-10-02T08:00:29.284Z,99.90
2022-10-02T08:03:00.841Z,99.90
2022-10-02T08:05:34.617Z,99.90
2022-10-02T08:08:08.038Z,99.90
2022-10-02T08:10:40.032Z,99.90
2022-10-02T08:13:14.742Z,99.90
2022-10-02T08:15:45.608Z,99.90
2022-10-02T08:18:34.064Z,99.90
2022-10-02T08:21:05.986Z,99.90
2022-10-02T08:23:40.598Z,99.90
2022-10-02T08:26:13.645Z,99.90
2022-10-02T08:28:45.692Z,99.90
2022-10-02T08:31:14.838Z,99.90
2022-10-02T08:33:43.686Z,99.90
2022-10-02T08:36:36.333Z,99.90
2022-10-02T08:39:32.565Z,99.90
2022-10-02T08:42:46.554Z,99.90
2022-10-02T08:45:49.029Z,99.90
2022-10-02T08:49:06.549Z,99.90
2022-10-02T08:52:17.007Z,99.90
2022-10-02T08:55:17.053Z,99.90
2022-10-02T08:58:04.255Z,99.90
2022-10-02T09:00:46.098Z,99.90
2022-10-02T09:03:46.072Z,99.90
2022-10-02T09:06:46.746Z,99.90
2022-10-02T09:09:51.418Z,99.90
2022-10-02T09:13:05.486Z,99.90
2022-10-02T09:15:46.978Z,99.90
2022-10-02T09:18:29.678Z,99.90
2022-10-02T09:21:15.547Z,99.90
2022-10-02T09:24:26.958Z,99.90
2022-10-02T09:27:39.322Z,99.90
2022-10-02T09:30:40.556Z,99.90
2022-10-02T09:33:42.478Z,99.90
2022-10-02T09:36:51.154Z,99.90
2022-10-02T09:40:00.212Z,99.90
2022-10-02T09:42:54.537Z,99.90
2022-10-02T09:45:49.093Z,99.90
2022-10-02T09:48:50.931Z,99.90
2022-10-02T09:52:11.747Z,99.90
2022-10-02T09:55:10.429Z,99.90
2022-10-02T09:58:29.225Z,99.90
2022-10-02T10:01:29.655Z,99.90
2022-10-02T10:04:47.866Z,99.90
2022-10-02T10:07:59.268Z,99.90
2022-10-02T10:10:50.757Z,99.90
2022-10-02T10:14:03.779Z,99.90
2022-10-02T10:16:53.042Z,99.90
2022-10-02T10:20:02.326Z,99.90
2022-10-02T10:23:01.144Z,99.90
2022-10-02T10:25:53.141Z,99.90
2022-10-02T10:29:03.985Z,99.90
2022-10-02T10:31:56.826Z,99.90
2022-10-02T10:34:58.090Z,99.90
2022-10-02T10:38:12.099Z,99.90
2022-10-02T10:40:50.624Z,99.90
2022-10-02T10:44:04.029Z,99.90
2022-10-02T10:47:16.063Z,99.90
2022-10-02T10:50:25.296Z,99.90
2022-10-02T10:53:11.773Z,99.90
2022-10-02T10:56:03.780Z,99.90
2022-10-02T10:58:50.533Z,98.40
2022-10-02T11:01:20.897Z,98.30
2022-10-02T11:04:15.695Z,97.80
2022-10-02T11:07:34.735Z,97.50
2022-10-02T11:10:25.572Z,97.50
2022-10-02T11:13:33.184Z,96.90
2022-10-02T11:16:40.482Z,97.00
2022-10-02T11:19:34.446Z,96.30
2022-10-02T11:22:21.317Z,95.40
2022-10-02T11:25:25.773Z,95.50
2022-10-02T11:28:23.768Z,95.80
2022-10-02T11:31:01.706Z,95.40
2022-10-02T11:34:08.832Z,95.30
2022-10-02T11:36:52.720Z,94.10
2022-10-02T11:39:37.887Z,94.20
2022-10-02T11:42:48.415Z,93.50
2022-10-02T11:45:33.991Z,93.00
2022-10-02T11:48:29.829Z,92.90
2022-10-02T11:51:27.112Z,92.60
2022-10-02T11:54:19.647Z,91.50
2022-10-02T11:57:10.102Z,91.90
2022-10-02T11:59:53.782Z,92.00
2022-10-02T12:02:27.353Z,91.80
2022-10-02T12:05:17.519Z,91.90
2022-10-02T12:07:55.598Z,91.90
2022-10-02T12:10:50.511Z,92.40
2022-10-02T12:13:47.151Z,92.10
2022-10-02T12:16:24.653Z,92.30
2022-10-02T12:19:07.598Z,91.90
2022-10-02T12:22:07.360Z,91.50
2022-10-02T12:25:01.806Z,92.20
2022-10-02T12:27:44.537Z,93.00
2022-10-02T12:30:15.953Z,93.10
2022-10-02T12:32:53.129Z,93.20
2022-10-02T12:35:52.127Z,93.30
2022-10-02T12:38:29.964Z,93.20
2022-10-02T12:41:08.632Z,92.90
2022-10-02T12:44:09.525Z,93.10
2022-10-02T12:47:06.885Z,93.40
2022-10-02T12:49:45.732Z,92.70
2022-10-02T12:52:53.177Z,93.20
2022-10-02T12:55:58.332Z,93.60
2022-10-02T12:58:35.129Z,93.40
2022-10-02T13:01:34.417Z,93.50
2022-10-02T13:04:27.270Z,93.50
2022-10-02T13:07:44.390Z,94.00
2022-10-02T13:10:20.287Z,93.80
2022-10-02T13:13:03.167Z,94.10
2022-10-02T13:15:39.692Z,94.20
2022-10-02T13:18:25.410Z,94.30
2022-10-02T13:21:04.204Z,94.40
2022-10-02T13:23:42.085Z,94.80
2022-10-02T13:26:23.797Z,94.80
2022-10-02T13:29:21.556Z,94.40
2022-10-02T13:32:24.595Z,94.20
2022-10-02T13:35:16.912Z,94.00
2022-10-02T13:37:58.488Z,93.70
2022-10-02T13:40:33.882Z,93.40
2022-10-02T13:43:35.582Z,93.70
2022-10-02T13:46:15.101Z,94.20
2022-10-02T13:48:55.999Z,94.10
2022-10-02T13:51:31.768Z,94.40
2022-10-02T13:54:18.437Z,94.60
2022-10-02T13:56:52.789Z,95.10
2022-10-02T14:00:01.550Z,94.90
2022-10-02T14:02:49.501Z,95.10
2022-10-02T14:05:33.155Z,95.60
2022-10-02T14:08:21.349Z,95.50
2022-10-02T14:11:04.851Z,94.80
2022-10-02T14:13:54.176Z,94.40
2022-10-02T14:16:39.324Z,94.00
2022-10-02T14:19:42.437Z,94.20
2022-10-02T14:22:33.829Z,94.30
2022-10-02T14:25:26.456Z,94.30
2022-10-02T14:28:27.969Z,94.20
2022-10-02T14:31:10.376Z,94.00
2022-10-02T14:33:57.686Z,94.00
2022-10-02T14:36:32.842Z,94.20
2022-10-02T14:39:21.193Z,94.50
2022-10-02T14:42:07.257Z,95.00
2022-10-02T14:44:56.913Z,94.90
2022-10-02T14:47:39.109Z,94.80
2022-10-02T14:50:26.225Z,95.00
2022-10-02T14:53:16.486Z,95.50
2022-10-02T14:56:02.239Z,96.50
2022-10-02T14:58:41.135Z,96.80
2022-10-02T15:01:22.347Z,97.20
2022-10-02T15:04:24.894Z,97.10
2022-10-02T15:07:16.482Z,97.40
2022-10-02T15:09:58.380Z,97.20
2022-10-02T15:12:31.080Z,97.00
2022-10-02T15:15:10.033Z,96.80
2022-10-02T15:18:00.071Z,97.40
2022-10-02T15:20:37.838Z,97.90
2022-10-02T15:23:12.405Z,98.10
2022-10-02T15:26:03.177Z,98.30
2022-10-02T15:28:47.919Z,98.60
2022-10-02T15:31:27.987Z,99.00
2022-10-02T15:34:08.385Z,99.30
2022-10-02T15:36:52.337Z,99.40
2022-10-02T15:39:46.328Z,99.60
2022-10-02T15:42:19.992Z,99.90
2022-10-02T15:45:18.349Z,99.90
2022-10-02T15:48:03.805Z,99.90
2022-10-02T15:50:42.353Z,99.90
2022-10-02T15:53:32.652Z,99.90
2022-10-02T15:56:22.558Z,99.90
2022-10-02T15:59:06.455Z,99.90
2022-10-02T16:01:48.004Z,99.90
2022-10-02T16:04:26.177Z,99.90
2022-10-02T16:07:34.237Z,99.90
2022-10-02T16:10:16.189Z,99.90
2022-10-02T16:13:07.875Z,99.90
2022-10-02T16:15:51.952Z,99.90
2022-10-02T16:18:40.968Z,99.90
2022-10-02T16:21:25.219Z,99.90
2022-10-02T16:24:16.013Z,99.90
2022-10-02T16:27:28.878Z,99.90
2022-10-02T16:30:11.837Z,99.90
2022-10-02T16:32:52.725Z,99.90
2022-10-02T16:35:46.494Z,99.90
2022-10-02T16:38:23.336Z,99.90
2022-10-02T16:40:57.832Z,99.90
2022-10-02T16:43:44.713Z,99.90
2022-10-02T16:46:18.175Z,99.90
2022-10-02T16:48:54.080Z,99.90
2022-10-02T16:51:37.099Z,99.90
2022-10-02T16:54:15.198Z,99.90
2022-10-02T16:56:50.570Z,99.90
2022-10-02T16:59:25.102Z,99.90
2022-10-02T17:02:16.985Z,99.90
2022-10-02T17:04:56.738Z,99.90
2022-10-02T17:07:36.301Z,99.90
2022-10-02T17:10:19.278Z,99.90
2022-10-02T17:12:53.604Z,99.90
2022-10-02T17:15:26.703Z,99.90
2022-10-02T17:18:18.420Z,99.90
2022-10-02T17:20:51.092Z,99.90
2022-10-02T17:23:26.350Z,99.90
2022-10-02T17:26:02.751Z,99.90
2022-10-02T17:28:39.152Z,99.90
2022-10-02T17:31:35.515Z,99.90
2022-10-02T17:34:20.011Z,99.90
2022-10-02T17:36:55.311Z,99.90
2022-10-02T17:39:57.549Z,99.90
2022-10-02T17:42:41.145Z,99.90
2022-10-02T17:45:21.201Z,99.90
2022-10-02T17:48:07.492Z,99.90
2022-10-02T17:50:57.846Z,99.90
2022-10-02T17:54:03.065Z,99.90
2022-10-02T17:56:51.533Z,99.90
2022-10-02T17:59:38.868Z,99.90
2022-10-02T18:02:17.832Z,99.90
2022-10-02T18:05:00.832Z,99.90
2022-10-02T18:07:48.283Z,99.90
2022-10-02T18:10:25.735Z,99.90
2022-10-02T18:13:15.422Z,99.90
2022-10-02T18:15:59.388Z,99.90
2022-10-02T18:18:35.454Z,99.90
2022-10-02T18:21:21.203Z,99.90
2022-10-02T18:24:35.627Z,99.90
2022-10-02T18:27:25.590Z,99.90
2022-10-02T18:30:04.686Z,99.90
2022-10-02T18:32:52.070Z,99.90
2022-10-02T18:35:35.001Z,99.90
2022-10-02T18:38:14.156Z,99.90
2022-10-02T18:40:56.000Z,99.90
2022-10-02T18:43:47.659Z,99.90
2022-10-02T18:46:27.329Z,99.90
2022-10-02T18:49:25.186Z,99.90
2022-10-02T18:52:19.270Z,99.90
2022-10-02T18:55:01.290Z,99.90
2022-10-02T18:57:40.802Z,99.90
2022-10-02T19:00:18.404Z,99.90
2022-10-02T19:03:07.336Z,99.90
2022-10-02T19:05:41.457Z,99.90
2022-10-02T19:08:19.021Z,99.90
2022-10-02T19:10:48.078Z,99.90
2022-10-02T19:13:24.364Z,99.90
2022-10-02T19:15:53.962Z,99.90
2022-10-02T19:18:23.623Z,99.90
2022-10-02T19:21:06.712Z,99.90
2022-10-02T19:23:38.907Z,99.90
2022-10-02T19:26:17.309Z,99.90
2022-10-02T19:28:50.233Z,99.90
2022-10-02T19:31:23.406Z,99.90
2022-10-02T19:33:55.212Z,99.90
2022-10-02T19:36:27.356Z,99.90
2022-10-02T19:38:58.866Z,99.90
2022-10-02T19:41:27.170Z,99.90
2022-10-02T19:44:00.973Z,99.90
2022-10-02T19:46:34.269Z,99.90
2022-10-02T19:49:03.067Z,99.90
2022-10-02T19:51:43.453Z,99.90
2022-10-02T19:54:17.436Z,99.90
2022-10-02T19:56:46.494Z,99.90
2022-10-02T19:59:19.473Z,99.90
2022-10-02T20:01:52.927Z,99.90
2022-10-02T20:04:22.997Z,99.90
2022-10-02T20:06:53.935Z,99.90
2022-10-02T20:09:28.191Z,99.90
2022-10-02T20:12:01.967Z,99.90
2022-10-02T20:14:38.073Z,99.90
2022-10-02T20:17:11.330Z,99.90
2022-10-02T20:19:45.336Z,99.90
2022-10-02T20:22:23.979Z,99.90
2022-10-02T20:24:57.818Z,99.90
2022-10-02T20:27:34.698Z,99.90
2022-10-02T20:30:10.786Z,99.90
2022-10-02T20:32:42.030Z,99.90
2022-10-02T20:35:16.690Z,99.90
2022-10-02T20:37:49.126Z,99.90
2022-10-02T20:40:20.710Z,99.90
2022-10-02T20:42:58.298Z,99.90
2022-10-02T20:45:37.998Z,99.90
2022-10-02T20:49:03.162Z,99.90
2022-10-02T20:51:44.979Z,99.90
2022-10-02T20:54:28.397Z,99.90
2022-10-02T20:57:56.029Z,99.90
2022-10-02T21:00:22.381Z,99.90
2022-10-02T21:03:25.964Z,99.90
2022-10-02T21:06:37.288Z,99.90
2022-10-02T21:09:42.544Z,99.90
2022-10-02T21:12:44.742Z,99.90
2022-10-02T21:15:41.291Z,99.90
2022-10-02T21:18:32.895Z,99.90
2022-10-02T21:21:25.414Z,99.90
2022-10-02T21:24:37.735Z,99.90
2022-10-02T21:27:43.934Z,99.90
2022-10-02T21:30:15.154Z,99.90
2022-10-02T21:33:12.846Z,99.90
2022-10-02T21:35:48.879Z,99.90
2022-10-02T21:38:55.375Z,99.90
2022-10-02T21:41:56.460Z,99.90
2022-10-02T21:44:59.243Z,99.90
2022-10-02T21:48:08.307Z,99.90
2022-10-02T21:50:51.742Z,99.90
2022-10-02T21:54:02.024Z,99.90
2022-10-02T21:56:53.272Z,99.90
2022-10-02T22:00:11.123Z,99.90
2022-10-02T22:03:10.219Z,99.90
2022-10-02T22:06:11.273Z,99.90
2022-10-02T22:08:57.588Z,99.90
2022-10-02T22:11:33.453Z,99.90
2022-10-02T22:14:09.644Z,99.90
2022-10-02T22:16:45.857Z,99.90
2022-10-02T22:19:28.205Z,99.90
2022-10-02T22:22:13.776Z,99.90
2022-10-02T22:24:56.336Z,99.90
2022-10-02T22:27:42.456Z,99.90
2022-10-02T22:30:22.557Z,99.90
2022-10-02T22:33:25.585Z,99.90
2022-10-02T22:36:21.120Z,99.90
2022-10-02T22:38:53.210Z,99.90
2022-10-02T22:41:27.790Z,99.90
2022-10-02T22:43:59.786Z,99.90
2022-10-02T22:46:41.309Z,99.90
2022-10-02T22:49:22.364Z,99.90
2022-10-02T22:52:00.421Z,99.90
2022-10-02T22:54:35.936Z,99.90
2022-10-02T22:57:13.190Z,99.90
2022-10-02T22:59:47.563Z,99.90
2022-10-02T23:02:21.869Z,99.90
2022-10-02T23:04:56.731Z,99.90
2022-10-02T23:07:29.736Z,99.90
2022-10-02T23:10:02.762Z,99.90
2022-10-02T23:12:39.618Z,99.90
2022-10-02T23:15:27.717Z,99.90
2022-10-02T23:18:00.232Z,99.90
2022-10-02T23:20:34.116Z,99.90
2022-10-02T23:23:13.472Z,99.90
2022-10-02T23:25:47.131Z,99.90
2022-10-02T23:28:21.601Z,99.90
2022-10-02T23:31:00.230Z,99.90
2022-10-02T23:33:33.060Z,99.90
2022-10-02T23:36:08.053Z,99.90
2022-10-02T23:38:46.425Z,99.90
2022-10-02T23:41:40.142Z,99.90
2022-10-02T23:44:18.078Z,99.90
2022-10-02T23:47:14.758Z,99.90
2022-10-02T23:49:47.450Z,99.90
2022-10-02T23:52:46.673Z,99.90
2022-10-02T23:55:33.631Z,99.90
2022-10-02T23:58:34.345Z,99.90
